Pagrindinis puslapis
METAR-TAF:

METAR-TAF

Oro uostai :

Saint-Pierre, Reunjonas

platuma: 21-20S, ilguma: 055-29E, Aukštis: 52 m

Dabartinis oras

Ataskaita buvo paskelbta 30 minutes, ne 22:30 UTC
Vėjas 3 kt iš Šiaurės/Šiaurės Rytų
Temperatūra 23°C
Drėgmė 73%
Slėgis 1013 hPa
Matomumas 10 km arba daugiau
Su prošvaistėmis ne aukštis 1700 ft
Su prošvaistėmis ne aukštis 2300 ft

METAR: FMEP 292230Z AUTO 03003KT 9999 BKN017 BKN023 23/18 Q1013

Laikas: 03:00 (23:00 UTC)

Prognozė

Ataskaita buvo paskelbta 12 valandos ir 0 minutes, ne 11:00 UTC
Prognozė galioja nuo 29 metu 12 UTC su 29 metu 21 UTC
Vėjas 12 kt iš Vakarų/Šiaurės Vakarų
Matomumas 10 km arba daugiau
Išsisklaidę debesys ne aukštis 6600 ft

TAF: FMEP 291100Z 2912/2921 30012KT 9999 SCT066

Orai ataskaitas ir orų prognozės (METAR, TAF).

turimą stotys yra geltonos ir raudonos taškus žemėlapyje.

Perkelti pele per norėdami pamatyti stoties vardą.

Tada spustelėkite, norėdami matyti oro stebėjimo ir prognozės.

Norėdami pakeisti žemėlapį: spustelėkite ant žalios mygtukų su juodo kryžiaus žemyn,; žalią mygtuką su brūkšneliu, jei norite nutolinti; arba žalių rodyklių gretimoms žemėlapius.


METAR-TAF: